createdAt,value
2023-01-30T00:01:14.841Z,95962.88
2023-01-30T00:04:17.521Z,95958.16
2023-01-30T00:07:19.363Z,95960.31
2023-01-30T00:10:24.636Z,95956.38
2023-01-30T00:13:28.181Z,95955.88
2023-01-30T00:16:33.814Z,95941.47
2023-01-30T00:19:35.628Z,95944.63
2023-01-30T00:22:37.702Z,95944.88
2023-01-30T00:25:40.167Z,95940.16
2023-01-30T00:28:42.126Z,95935.50
2023-01-30T00:31:45.995Z,95922.94
2023-01-30T00:34:48.149Z,95929.38
2023-01-30T00:37:50.011Z,95926.44
2023-01-30T00:40:52.055Z,95921.16
2023-01-30T00:43:54.068Z,95910.47
2023-01-30T00:46:57.330Z,95910.25
2023-01-30T00:49:59.305Z,95916.06
2023-01-30T00:53:02.616Z,95911.19
2023-01-30T00:56:07.949Z,95910.16
2023-01-30T00:59:11.637Z,95916.47
2023-01-30T01:02:15.362Z,95916.44
2023-01-30T01:05:17.426Z,95912.06
2023-01-30T01:08:19.581Z,95897.47
2023-01-30T01:11:21.564Z,95895.97
2023-01-30T01:14:23.632Z,95890.69
2023-01-30T01:17:27.155Z,95893.81
2023-01-30T01:20:30.219Z,95893.63
2023-01-30T01:23:32.105Z,95873.94
2023-01-30T01:26:34.205Z,95882.31
2023-01-30T01:29:36.332Z,95883.78
2023-01-30T01:32:39.722Z,95878.66
2023-01-30T01:35:41.832Z,95871.78
2023-01-30T01:38:44.205Z,95870.00
2023-01-30T01:41:46.080Z,95865.44
2023-01-30T01:45:03.441Z,95862.00
2023-01-30T01:48:13.240Z,95853.41
2023-01-30T01:51:19.053Z,95851.63
2023-01-30T01:54:26.589Z,95826.03
2023-01-30T01:57:34.259Z,95830.66
2023-01-30T02:00:36.326Z,95832.50
2023-01-30T02:03:45.611Z,95833.88
2023-01-30T02:06:47.588Z,95861.66
2023-01-30T02:09:50.981Z,95847.78
2023-01-30T02:12:53.663Z,95842.00
2023-01-30T02:15:58.079Z,95837.91
2023-01-30T02:19:01.960Z,95825.88
2023-01-30T02:22:22.808Z,95820.28
2023-01-30T02:25:57.974Z,95805.78
2023-01-30T02:29:34.779Z,95810.50
2023-01-30T02:32:46.422Z,95811.00
2023-01-30T02:35:58.355Z,95804.66
2023-01-30T02:39:07.161Z,95798.91
2023-01-30T02:42:19.695Z,95801.03
2023-01-30T02:45:27.092Z,95794.78
2023-01-30T02:48:39.159Z,95807.22
2023-01-30T02:51:45.156Z,95809.66
2023-01-30T02:54:47.519Z,95814.38
2023-01-30T02:57:49.982Z,95817.41
2023-01-30T03:01:14.562Z,95811.84
2023-01-30T03:04:34.462Z,95814.75
2023-01-30T03:07:45.195Z,95798.78
2023-01-30T03:10:56.832Z,95804.63
2023-01-30T03:14:08.077Z,95811.28
2023-01-30T03:17:10.968Z,95803.19
2023-01-30T03:20:16.403Z,95817.22
2023-01-30T03:23:21.504Z,95806.66
2023-01-30T03:26:30.691Z,95809.66
2023-01-30T03:29:33.805Z,95799.94
2023-01-30T03:32:35.880Z,95810.22
2023-01-30T03:35:39.593Z,95802.84
2023-01-30T03:38:41.532Z,95812.09
2023-01-30T03:41:43.668Z,95827.75
2023-01-30T03:44:56.398Z,95823.72
2023-01-30T03:47:58.580Z,95814.44
2023-01-30T03:51:01.837Z,95815.91
2023-01-30T03:54:03.962Z,95799.94
2023-01-30T03:57:05.767Z,95810.72
2023-01-30T04:00:09.560Z,95809.50
2023-01-30T04:03:11.650Z,95809.16
2023-01-30T04:06:15.730Z,95803.84
2023-01-30T04:09:18.101Z,95793.50
2023-01-30T04:12:19.934Z,95789.47
2023-01-30T04:15:22.448Z,95775.47
2023-01-30T04:18:24.867Z,95772.91
2023-01-30T04:21:28.201Z,95759.91
2023-01-30T04:24:30.532Z,95741.88
2023-01-30T04:27:32.418Z,95753.47
2023-01-30T04:30:34.420Z,95743.06
2023-01-30T04:33:36.749Z,95751.59
2023-01-30T04:36:40.135Z,95755.09
2023-01-30T04:39:42.143Z,95750.75
2023-01-30T04:42:44.874Z,95752.34
2023-01-30T04:45:48.087Z,95759.19
2023-01-30T04:48:50.020Z,95760.28
2023-01-30T04:51:53.665Z,95744.09
2023-01-30T04:54:55.666Z,95748.47
2023-01-30T04:57:57.561Z,95757.16
2023-01-30T05:01:12.871Z,95753.25
2023-01-30T05:04:14.980Z,95764.81
2023-01-30T05:07:18.329Z,95775.69
2023-01-30T05:10:23.275Z,95772.69
2023-01-30T05:13:25.214Z,95756.34
2023-01-30T05:16:28.007Z,95754.47
2023-01-30T05:19:30.576Z,95751.69
2023-01-30T05:22:34.592Z,95746.44
2023-01-30T05:25:36.369Z,95736.69
2023-01-30T05:28:38.362Z,95759.44
2023-01-30T05:31:41.624Z,95748.78
2023-01-30T05:34:43.652Z,95745.56
2023-01-30T05:37:51.305Z,95738.31
2023-01-30T05:41:00.992Z,95723.94
2023-01-30T05:44:05.833Z,95722.53
2023-01-30T05:47:08.735Z,95731.88
2023-01-30T05:50:11.703Z,95716.00
2023-01-30T05:53:14.979Z,95696.22
2023-01-30T05:56:17.826Z,95678.75
2023-01-30T05:59:20.341Z,95665.03
2023-01-30T06:02:22.459Z,95661.81
2023-01-30T06:05:24.478Z,95675.34
2023-01-30T06:08:27.769Z,95675.53
2023-01-30T06:11:29.754Z,95681.09
2023-01-30T06:14:31.499Z,95685.81
2023-01-30T06:17:34.337Z,95708.38
2023-01-30T06:20:36.169Z,95686.91
2023-01-30T06:23:39.475Z,95690.84
2023-01-30T06:26:42.339Z,95681.22
2023-01-30T06:29:44.407Z,95677.81
2023-01-30T06:32:50.532Z,95679.97
2023-01-30T06:35:52.550Z,95671.91
2023-01-30T06:38:55.826Z,95690.72
2023-01-30T06:41:57.651Z,95692.41
2023-01-30T06:44:59.790Z,95692.38
2023-01-30T06:48:01.650Z,95677.50
2023-01-30T06:51:05.663Z,95704.34
2023-01-30T06:54:09.083Z,95686.44
2023-01-30T06:57:11.333Z,95706.03
2023-01-30T07:00:15.363Z,95706.03
2023-01-30T07:03:18.916Z,95693.88
2023-01-30T07:06:21.211Z,95698.09
2023-01-30T07:09:24.403Z,95720.44
2023-01-30T07:12:27.174Z,95704.97
2023-01-30T07:15:29.017Z,95695.16
2023-01-30T07:18:31.565Z,95708.75
2023-01-30T07:21:33.476Z,95717.13
2023-01-30T07:24:37.354Z,95710.53
2023-01-30T07:27:39.402Z,95694.56
2023-01-30T07:30:42.789Z,95711.22
2023-01-30T07:33:44.674Z,95701.59
2023-01-30T07:36:46.545Z,95706.00
2023-01-30T07:39:49.829Z,95690.50
2023-01-30T07:42:58.607Z,95677.25
2023-01-30T07:46:00.472Z,95692.56
2023-01-30T07:49:02.508Z,95669.66
2023-01-30T07:52:06.400Z,95681.84
2023-01-30T07:55:11.117Z,95689.69
2023-01-30T07:58:14.181Z,95670.13
2023-01-30T08:01:16.539Z,95695.72
2023-01-30T08:04:18.491Z,95674.41
2023-01-30T08:07:23.272Z,95681.28
2023-01-30T08:10:27.796Z,95667.19
2023-01-30T08:13:30.516Z,95671.56
2023-01-30T08:16:32.627Z,95667.53
2023-01-30T08:19:34.723Z,95666.44
2023-01-30T08:22:37.264Z,95663.81
2023-01-30T08:25:40.786Z,95667.75
2023-01-30T08:28:42.734Z,95669.66
2023-01-30T08:31:44.857Z,95659.34
2023-01-30T08:34:46.929Z,95660.63
2023-01-30T08:37:49.447Z,95654.41
2023-01-30T08:40:54.924Z,95656.00
2023-01-30T08:43:57.021Z,95656.63
2023-01-30T08:46:58.891Z,95635.09
2023-01-30T08:50:00.820Z,95648.06
2023-01-30T08:53:07.373Z,95646.97
2023-01-30T08:56:11.322Z,95648.13
2023-01-30T08:59:13.530Z,95649.47
2023-01-30T09:02:15.420Z,95644.38
2023-01-30T09:05:17.666Z,95631.28
2023-01-30T09:08:20.419Z,95630.38
2023-01-30T09:11:23.634Z,95633.94
2023-01-30T09:14:25.739Z,95629.13
2023-01-30T09:17:27.568Z,95625.38
2023-01-30T09:20:29.601Z,95618.56
2023-01-30T09:23:31.470Z,95612.00
2023-01-30T09:26:34.728Z,95605.31
2023-01-30T09:29:36.524Z,95621.44
2023-01-30T09:32:38.322Z,95615.31
2023-01-30T09:35:40.111Z,95600.19
2023-01-30T09:38:41.930Z,95590.06
2023-01-30T09:42:01.041Z,95604.09
2023-01-30T09:45:25.939Z,95590.22
2023-01-30T09:48:33.898Z,95591.78
2023-01-30T09:51:54.177Z,95603.34
2023-01-30T09:55:02.342Z,95588.69
2023-01-30T09:58:07.190Z,95576.81
2023-01-30T10:01:20.677Z,95577.13
2023-01-30T10:04:29.908Z,95577.91
2023-01-30T10:07:42.156Z,95552.88
2023-01-30T10:10:55.031Z,95561.50
2023-01-30T10:14:16.232Z,95561.84
2023-01-30T10:17:33.572Z,95557.44
2023-01-30T10:20:50.083Z,95549.19
2023-01-30T10:24:05.139Z,95545.25
2023-01-30T10:27:12.035Z,95546.97
2023-01-30T10:30:17.953Z,95543.84
2023-01-30T10:33:25.298Z,95548.69
2023-01-30T10:36:34.829Z,95535.84
2023-01-30T10:39:54.997Z,95531.31
2023-01-30T10:43:03.148Z,95525.03
2023-01-30T10:46:21.712Z,95521.84
2023-01-30T10:49:31.563Z,95519.19
2023-01-30T10:52:42.988Z,95501.50
2023-01-30T10:55:48.764Z,95479.59
2023-01-30T10:58:57.299Z,95481.13
2023-01-30T11:02:15.940Z,95474.22
2023-01-30T11:05:21.560Z,95458.97
2023-01-30T11:08:25.612Z,95453.00
2023-01-30T11:11:31.120Z,95430.09
2023-01-30T11:14:54.550Z,95438.09
2023-01-30T11:18:34.080Z,95433.81
2023-01-30T11:21:43.115Z,95432.84
2023-01-30T11:24:48.419Z,95417.00
2023-01-30T11:27:55.807Z,95402.59
2023-01-30T11:31:00.260Z,95405.97
2023-01-30T11:34:07.588Z,95409.69
2023-01-30T11:37:15.069Z,95404.59
2023-01-30T11:40:25.543Z,95388.41
2023-01-30T11:43:30.945Z,95370.75
2023-01-30T11:46:38.433Z,95382.09
2023-01-30T11:49:47.874Z,95363.78
2023-01-30T11:53:16.646Z,95353.91
2023-01-30T11:56:34.319Z,95358.72
2023-01-30T11:59:40.191Z,95346.94
2023-01-30T12:02:45.574Z,95349.09
2023-01-30T12:05:49.317Z,95348.16
2023-01-30T12:08:53.657Z,95346.06
2023-01-30T12:11:55.787Z,95331.53
2023-01-30T12:15:18.425Z,95336.91
2023-01-30T12:18:29.638Z,95326.44
2023-01-30T12:21:44.187Z,95315.47
2023-01-30T12:24:55.403Z,95317.88
2023-01-30T12:28:02.651Z,95292.72
2023-01-30T12:31:10.882Z,95302.72
2023-01-30T12:34:12.796Z,95284.25
2023-01-30T12:37:34.130Z,95300.16
2023-01-30T12:40:47.243Z,95303.72
2023-01-30T12:44:12.370Z,95275.63
2023-01-30T12:47:25.141Z,95253.84
2023-01-30T12:50:42.375Z,95254.41
2023-01-30T12:53:59.068Z,95268.38
2023-01-30T12:57:14.430Z,95262.47
2023-01-30T13:00:36.654Z,95265.16
2023-01-30T13:03:45.078Z,95290.34
2023-01-30T13:06:59.798Z,95266.13
2023-01-30T13:10:14.699Z,95243.91
2023-01-30T13:13:25.642Z,95255.44
2023-01-30T13:16:36.817Z,95262.22
2023-01-30T13:19:45.613Z,95294.66
2023-01-30T13:22:53.197Z,95252.28
2023-01-30T13:26:03.770Z,95240.72
2023-01-30T13:29:14.888Z,95249.09
2023-01-30T13:32:25.902Z,95263.84
2023-01-30T13:35:33.931Z,95256.06
2023-01-30T13:38:41.146Z,95263.91
2023-01-30T13:41:48.735Z,95266.25
2023-01-30T13:44:52.356Z,95269.16
2023-01-30T13:48:11.023Z,95261.00
2023-01-30T13:51:35.147Z,95266.31
2023-01-30T13:54:46.529Z,95256.47
2023-01-30T13:57:56.414Z,95266.44
2023-01-30T14:00:58.789Z,95271.78
2023-01-30T14:04:42.202Z,95281.66
2023-01-30T14:07:45.804Z,95308.56
2023-01-30T14:10:48.719Z,95294.63
2023-01-30T14:13:53.497Z,95292.34
2023-01-30T14:16:57.999Z,95294.22
2023-01-30T14:20:05.410Z,95314.94
2023-01-30T14:27:22.249Z,95318.53
2023-01-30T14:30:37.890Z,95336.75
2023-01-30T14:33:49.369Z,95327.47
2023-01-30T14:36:52.862Z,95324.22
2023-01-30T14:39:57.473Z,95320.00
2023-01-30T14:43:40.744Z,95333.34
2023-01-30T14:46:57.903Z,95329.97
2023-01-30T14:50:02.353Z,95345.75
2023-01-30T14:53:04.528Z,95358.63
2023-01-30T14:56:08.240Z,95350.16
2023-01-30T14:59:20.969Z,95356.28
2023-01-30T15:02:28.017Z,95367.69
2023-01-30T15:05:33.947Z,95379.88
2023-01-30T15:08:41.862Z,95372.38
2023-01-30T15:11:53.182Z,95377.81
2023-01-30T15:15:04.947Z,95388.00
2023-01-30T15:18:36.162Z,95396.13
2023-01-30T15:22:01.395Z,95412.78
2023-01-30T15:25:27.458Z,95415.19
2023-01-30T15:28:39.127Z,95395.22
2023-01-30T15:31:53.734Z,95393.31
2023-01-30T15:34:58.249Z,95406.13
2023-01-30T15:38:00.370Z,95388.84
2023-01-30T15:41:04.511Z,95400.56
2023-01-30T15:44:26.127Z,95416.06
2023-01-30T15:47:55.315Z,95440.34
2023-01-30T15:50:59.925Z,95438.59
2023-01-30T15:54:09.368Z,95424.97
2023-01-30T15:57:18.521Z,95416.88
2023-01-30T16:00:29.276Z,95438.72
2023-01-30T16:03:33.910Z,95443.41
2023-01-30T16:06:37.429Z,95475.19
2023-01-30T16:09:39.348Z,95476.59
2023-01-30T16:12:41.800Z,95477.97
2023-01-30T16:15:50.599Z,95487.69
2023-01-30T16:18:57.436Z,95484.69
2023-01-30T16:22:04.576Z,95474.66
2023-01-30T16:25:18.289Z,95501.94
2023-01-30T16:28:21.851Z,95502.69
2023-01-30T16:31:25.694Z,95502.69
2023-01-30T16:34:32.684Z,95512.84
2023-01-30T16:37:36.023Z,95537.94
2023-01-30T16:40:45.925Z,95537.66
2023-01-30T16:44:09.157Z,95534.19
2023-01-30T16:47:23.412Z,95537.66
2023-01-30T16:50:26.418Z,95560.97
2023-01-30T16:53:32.039Z,95571.78
2023-01-30T16:56:38.503Z,95566.00
2023-01-30T16:59:41.340Z,95567.41
2023-01-30T17:02:54.266Z,95567.69
2023-01-30T17:05:58.691Z,95571.66
2023-01-30T17:09:02.624Z,95567.88
2023-01-30T17:12:34.146Z,95545.50
2023-01-30T17:15:38.627Z,95537.94
2023-01-30T17:18:46.961Z,95551.78
2023-01-30T17:21:52.405Z,95568.34
2023-01-30T17:24:59.409Z,95561.88
2023-01-30T17:28:03.426Z,95570.84
2023-01-30T17:31:07.205Z,95578.06
2023-01-30T17:34:12.109Z,95564.72
2023-01-30T17:37:17.024Z,95588.09
2023-01-30T17:40:29.735Z,95585.91
2023-01-30T17:43:32.335Z,95578.69
2023-01-30T17:46:37.777Z,95599.03
2023-01-30T17:49:42.953Z,95592.63
2023-01-30T17:52:44.923Z,95603.25
2023-01-30T17:55:47.481Z,95593.75
2023-01-30T17:58:50.096Z,95595.75
2023-01-30T18:01:53.666Z,95598.75
2023-01-30T18:04:57.269Z,95612.03
2023-01-30T18:08:01.904Z,95609.53
2023-01-30T18:11:04.555Z,95621.13
2023-01-30T18:14:08.345Z,95632.59
2023-01-30T18:17:11.793Z,95627.41
2023-01-30T18:20:19.807Z,95624.28
2023-01-30T18:23:22.824Z,95619.28
2023-01-30T18:26:28.167Z,95650.75
2023-01-30T18:29:31.749Z,95619.44
2023-01-30T18:32:37.685Z,95637.91
2023-01-30T18:35:41.904Z,95619.75
2023-01-30T18:38:45.464Z,95631.03
2023-01-30T18:41:48.432Z,95640.56
2023-01-30T18:44:51.541Z,95662.66
2023-01-30T18:47:54.358Z,95660.78
2023-01-30T18:51:07.827Z,95633.84
2023-01-30T18:54:10.403Z,95646.53
2023-01-30T18:57:16.922Z,95639.34
2023-01-30T19:00:22.207Z,95650.44
2023-01-30T19:03:26.183Z,95650.75
2023-01-30T19:06:30.849Z,95641.38
2023-01-30T19:09:37.063Z,95650.44
2023-01-30T19:12:41.977Z,95631.81
2023-01-30T19:15:45.653Z,95665.00
2023-01-30T19:18:49.914Z,95659.34
2023-01-30T19:21:55.335Z,95658.09
2023-01-30T19:24:58.315Z,95655.44
2023-01-30T19:28:01.284Z,95665.63
2023-01-30T19:31:07.215Z,95664.97
2023-01-30T19:34:14.774Z,95664.19
2023-01-30T19:37:19.477Z,95658.72
2023-01-30T19:40:23.076Z,95659.97
2023-01-30T19:43:26.911Z,95667.81
2023-01-30T19:46:30.464Z,95680.31
2023-01-30T19:49:36.519Z,95687.34
2023-01-30T19:52:41.541Z,95686.25
2023-01-30T19:55:50.581Z,95696.91
2023-01-30T19:58:56.259Z,95694.88
2023-01-30T20:02:03.176Z,95690.50
2023-01-30T20:05:09.031Z,95702.41
2023-01-30T20:08:30.495Z,95734.03
2023-01-30T20:11:35.838Z,95702.56
2023-01-30T20:14:39.009Z,95719.31
2023-01-30T20:17:45.365Z,95686.25
2023-01-30T20:20:49.070Z,95718.38
2023-01-30T20:23:53.821Z,95676.88
2023-01-30T20:26:57.821Z,95703.66
2023-01-30T20:30:01.255Z,95712.72
2023-01-30T20:33:06.118Z,95734.50
2023-01-30T20:36:11.338Z,95713.53
2023-01-30T20:39:15.488Z,95733.88
2023-01-30T20:42:20.992Z,95733.88
2023-01-30T20:45:24.727Z,95733.72
2023-01-30T20:48:31.813Z,95733.41
2023-01-30T20:51:35.183Z,95718.53
2023-01-30T20:54:39.437Z,95748.13
2023-01-30T20:57:43.237Z,95729.81
2023-01-30T21:00:46.115Z,95735.78
2023-01-30T21:03:50.618Z,95747.34
2023-01-30T21:06:53.126Z,95747.34
2023-01-30T21:09:59.368Z,95742.34
2023-01-30T21:13:02.132Z,95753.28
2023-01-30T21:16:07.407Z,95747.19
2023-01-30T21:19:14.243Z,95747.97
2023-01-30T21:22:17.268Z,95745.63
2023-01-30T21:25:24.293Z,95741.69
2023-01-30T21:28:26.538Z,95750.50
2023-01-30T21:31:30.806Z,95741.69
2023-01-30T21:34:33.082Z,95770.66
2023-01-30T21:37:34.962Z,95779.91
2023-01-30T21:40:38.956Z,95758.00
2023-01-30T21:43:43.766Z,95768.78
2023-01-30T21:46:47.601Z,95775.06
2023-01-30T21:49:53.582Z,95770.84
2023-01-30T21:52:56.376Z,95780.06
2023-01-30T21:55:59.660Z,95775.81
2023-01-30T21:59:02.765Z,95794.94
2023-01-30T22:02:04.996Z,95786.34
2023-01-30T22:05:08.102Z,95773.78
2023-01-30T22:08:09.855Z,95791.34
2023-01-30T22:11:15.041Z,95789.13
2023-01-30T22:14:17.081Z,95786.34
2023-01-30T22:17:19.131Z,95805.44
2023-01-30T22:20:20.940Z,95808.25
2023-01-30T22:23:22.777Z,95798.53
2023-01-30T22:26:26.740Z,95830.63
2023-01-30T22:29:28.579Z,95806.22
2023-01-30T22:32:30.605Z,95812.94
2023-01-30T22:35:32.414Z,95809.50
2023-01-30T22:38:34.834Z,95805.13
2023-01-30T22:41:38.613Z,95815.59
2023-01-30T22:44:40.438Z,95796.34
2023-01-30T22:47:42.270Z,95816.38
2023-01-30T22:50:44.055Z,95835.16
2023-01-30T22:53:47.586Z,95793.38
2023-01-30T22:56:53.598Z,95806.03
2023-01-30T22:59:55.626Z,95793.84
2023-01-30T23:02:57.365Z,95796.34
2023-01-30T23:06:00.011Z,95805.88
2023-01-30T23:09:02.194Z,95812.50
2023-01-30T23:12:05.815Z,95844.72
2023-01-30T23:15:08.331Z,95823.91
2023-01-30T23:18:10.570Z,95831.56
2023-01-30T23:21:14.263Z,95827.19
2023-01-30T23:24:18.702Z,95802.63
2023-01-30T23:27:23.168Z,95819.66
2023-01-30T23:30:24.938Z,95811.38
2023-01-30T23:33:26.795Z,95810.44
2023-01-30T23:36:29.648Z,95832.38
2023-01-30T23:39:31.693Z,95837.84
2023-01-30T23:42:36.450Z,95825.94
2023-01-30T23:45:38.885Z,95825.78
2023-01-30T23:48:42.299Z,95823.75
2023-01-30T23:51:44.971Z,95830.19
2023-01-30T23:54:47.106Z,95818.13
2023-01-30T23:57:50.313Z,95822.19
